createdAt,value
2018-04-18T00:00:58.057Z,1023.02
2018-04-18T00:01:58.034Z,1023.03
2018-04-18T00:03:00.803Z,1023.00
2018-04-18T00:03:58.042Z,1023.08
2018-04-18T00:04:58.039Z,1023.09
2018-04-18T00:05:57.892Z,1023.09
2018-04-18T00:06:57.832Z,1023.11
2018-04-18T00:07:59.720Z,1023.11
2018-04-18T00:08:57.847Z,1023.14
2018-04-18T00:09:57.794Z,1023.14
2018-04-18T00:10:57.813Z,1023.14
2018-04-18T00:11:57.753Z,1023.21
2018-04-18T00:12:57.767Z,1023.18
2018-04-18T00:13:57.788Z,1023.19
2018-04-18T00:14:57.662Z,1023.21
2018-04-18T00:15:57.571Z,1023.18
2018-04-18T00:16:57.612Z,1023.19
2018-04-18T00:17:57.555Z,1023.15
2018-04-18T00:18:57.676Z,1023.17
2018-04-18T00:19:57.583Z,1023.17
2018-04-18T00:20:57.603Z,1023.17
2018-04-18T00:21:57.518Z,1023.15
2018-04-18T00:22:57.487Z,1023.17
2018-04-18T00:23:57.445Z,1023.12
2018-04-18T00:24:57.399Z,1023.13
2018-04-18T00:25:57.474Z,1023.15
2018-04-18T00:26:57.383Z,1023.19
2018-04-18T00:27:57.332Z,1023.13
2018-04-18T00:28:59.341Z,1023.20
2018-04-18T00:29:57.247Z,1023.20
2018-04-18T00:30:57.250Z,1023.20
2018-04-18T00:31:57.229Z,1023.21
2018-04-18T00:32:57.187Z,1023.17
2018-04-18T00:33:57.208Z,1023.20
2018-04-18T00:34:57.085Z,1023.25
2018-04-18T00:35:57.131Z,1023.21
2018-04-18T00:36:57.292Z,1023.27
2018-04-18T00:37:57.062Z,1023.26
2018-04-18T00:38:57.011Z,1023.25
2018-04-18T00:39:56.993Z,1023.27
2018-04-18T00:40:56.939Z,1023.28
2018-04-18T00:41:56.949Z,1023.35
2018-04-18T00:42:56.963Z,1023.32
2018-04-18T00:43:56.849Z,1023.41
2018-04-18T00:44:56.802Z,1023.38
2018-04-18T00:45:56.857Z,1023.42
2018-04-18T00:46:56.737Z,1023.44
2018-04-18T00:47:56.716Z,1023.46
2018-04-18T00:48:56.690Z,1023.46
2018-04-18T00:49:56.662Z,1023.47
2018-04-18T00:50:56.631Z,1023.46
2018-04-18T00:51:56.605Z,1023.49
2018-04-18T00:52:56.579Z,1023.46
2018-04-18T00:53:56.609Z,1023.51
2018-04-18T00:54:56.593Z,1023.49
2018-04-18T00:55:56.744Z,1023.51
2018-04-18T00:56:56.491Z,1023.47
2018-04-18T00:57:58.180Z,1023.50
2018-04-18T00:58:56.580Z,1023.47
2018-04-18T00:59:56.481Z,1023.45
2018-04-18T01:00:56.455Z,1023.42
2018-04-18T01:01:56.456Z,1023.44
2018-04-18T01:02:56.417Z,1023.46
2018-04-18T01:03:56.402Z,1023.45
2018-04-18T01:04:58.190Z,1023.47
2018-04-18T01:05:56.332Z,1023.50
2018-04-18T01:06:56.301Z,1023.51
2018-04-18T01:07:56.315Z,1023.47
2018-04-18T01:08:58.767Z,1023.48
2018-04-18T01:09:56.161Z,1023.52
2018-04-18T01:10:56.775Z,1023.54
2018-04-18T01:11:56.122Z,1023.50
2018-04-18T01:12:56.133Z,1023.52
2018-04-18T01:13:56.127Z,1023.50
2018-04-18T01:14:56.099Z,1023.48
2018-04-18T01:15:56.191Z,1023.49
2018-04-18T01:16:55.970Z,1023.51
2018-04-18T01:17:55.961Z,1023.53
2018-04-18T01:18:55.879Z,1023.51
2018-04-18T01:19:55.851Z,1023.56
2018-04-18T01:20:55.824Z,1023.58
2018-04-18T01:21:55.794Z,1023.56
2018-04-18T01:22:55.774Z,1023.56
2018-04-18T01:23:55.800Z,1023.56
2018-04-18T01:24:55.716Z,1023.56
2018-04-18T01:25:55.691Z,1023.56
2018-04-18T01:26:55.662Z,1023.60
2018-04-18T01:27:55.638Z,1023.58
2018-04-18T01:28:55.667Z,1023.58
2018-04-18T01:29:55.590Z,1023.61
2018-04-18T01:30:55.554Z,1023.65
2018-04-18T01:31:55.530Z,1023.59
2018-04-18T01:32:55.496Z,1023.65
2018-04-18T01:33:55.474Z,1023.70
2018-04-18T01:34:55.451Z,1023.68
2018-04-18T01:35:55.414Z,1023.67
2018-04-18T01:36:55.394Z,1023.69
2018-04-18T01:37:55.390Z,1023.67
2018-04-18T01:38:55.342Z,1023.68
2018-04-18T01:39:55.311Z,1023.69
2018-04-18T01:40:55.282Z,1023.76
2018-04-18T01:41:55.256Z,1023.72
2018-04-18T01:42:55.233Z,1023.73
2018-04-18T01:43:55.217Z,1023.72
2018-04-18T01:44:55.173Z,1023.74
2018-04-18T01:45:55.150Z,1023.76
2018-04-18T01:46:55.181Z,1023.74
2018-04-18T01:47:55.104Z,1023.77
2018-04-18T01:48:55.068Z,1023.78
2018-04-18T01:49:55.040Z,1023.77
2018-04-18T01:50:55.013Z,1023.75
2018-04-18T01:51:54.983Z,1023.74
2018-04-18T01:52:54.961Z,1023.76
2018-04-18T01:53:54.934Z,1023.76
2018-04-18T01:54:54.904Z,1023.75
2018-04-18T01:55:54.879Z,1023.79
2018-04-18T01:56:54.853Z,1023.77
2018-04-18T01:57:54.819Z,1023.80
2018-04-18T01:58:54.791Z,1023.80
2018-04-18T01:59:54.768Z,1023.81
2018-04-18T02:00:54.735Z,1023.77
2018-04-18T02:01:54.715Z,1023.80
2018-04-18T02:02:54.684Z,1023.85
2018-04-18T02:03:54.686Z,1023.88
2018-04-18T02:04:54.680Z,1023.85
2018-04-18T02:05:54.600Z,1023.86
2018-04-18T02:06:54.577Z,1023.85
2018-04-18T02:07:54.551Z,1023.88
2018-04-18T02:08:54.527Z,1023.93
2018-04-18T02:09:54.522Z,1023.90
2018-04-18T02:10:54.464Z,1023.87
2018-04-18T02:11:54.436Z,1023.84
2018-04-18T02:12:54.421Z,1023.91
2018-04-18T02:13:54.378Z,1023.90
2018-04-18T02:14:54.351Z,1023.89
2018-04-18T02:15:54.332Z,1023.89
2018-04-18T02:16:54.306Z,1023.89
2018-04-18T02:17:54.270Z,1023.91
2018-04-18T02:18:54.276Z,1023.94
2018-04-18T02:19:54.226Z,1023.92
2018-04-18T02:20:54.190Z,1023.96
2018-04-18T02:21:54.173Z,1023.99
2018-04-18T02:22:54.135Z,1023.92
2018-04-18T02:23:54.105Z,1023.95
2018-04-18T02:24:54.087Z,1023.98
2018-04-18T02:25:54.051Z,1023.96
2018-04-18T02:26:54.022Z,1023.96
2018-04-18T02:27:54.002Z,1023.95
2018-04-18T02:28:53.970Z,1023.96
2018-04-18T02:29:53.942Z,1024.01
2018-04-18T02:30:53.923Z,1024.00
2018-04-18T02:31:53.889Z,1023.99
2018-04-18T02:32:53.872Z,1024.03
2018-04-18T02:33:53.831Z,1024.04
2018-04-18T02:34:53.815Z,1024.00
2018-04-18T02:35:53.779Z,1024.06
2018-04-18T02:36:53.748Z,1024.06
2018-04-18T02:37:53.718Z,1024.03
2018-04-18T02:38:53.690Z,1024.09
2018-04-18T02:39:53.663Z,1024.09
2018-04-18T02:40:53.641Z,1024.04
2018-04-18T02:41:53.608Z,1024.05
2018-04-18T02:42:53.583Z,1024.08
2018-04-18T02:43:53.570Z,1024.09
2018-04-18T02:44:53.535Z,1024.12
2018-04-18T02:45:53.504Z,1024.11
2018-04-18T02:46:53.474Z,1024.17
2018-04-18T02:47:53.454Z,1024.21
2018-04-18T02:48:53.421Z,1024.17
2018-04-18T02:49:53.402Z,1024.20
2018-04-18T02:50:53.369Z,1024.16
2018-04-18T02:51:53.367Z,1024.21
2018-04-18T02:52:53.333Z,1024.21
2018-04-18T02:53:53.282Z,1024.21
2018-04-18T02:54:53.262Z,1024.25
2018-04-18T02:55:53.231Z,1024.21
2018-04-18T02:56:53.207Z,1024.24
2018-04-18T02:57:53.174Z,1024.26
2018-04-18T02:58:53.152Z,1024.28
2018-04-18T02:59:53.119Z,1024.29
2018-04-18T03:00:54.747Z,1024.30
2018-04-18T03:01:53.057Z,1024.31
2018-04-18T03:02:53.038Z,1024.30
2018-04-18T03:03:53.014Z,1024.31
2018-04-18T03:04:53.028Z,1024.34
2018-04-18T03:05:52.969Z,1024.37
2018-04-18T03:06:52.927Z,1024.35
2018-04-18T03:07:52.922Z,1024.35
2018-04-18T03:08:52.872Z,1024.34
2018-04-18T03:09:52.849Z,1024.38
2018-04-18T03:10:52.845Z,1024.39
2018-04-18T03:11:52.787Z,1024.39
2018-04-18T03:12:52.771Z,1024.37
2018-04-18T03:13:52.784Z,1024.40
2018-04-18T03:14:52.712Z,1024.43
2018-04-18T03:15:52.677Z,1024.45
2018-04-18T03:16:52.655Z,1024.44
2018-04-18T03:17:52.625Z,1024.46
2018-04-18T03:18:52.592Z,1024.47
2018-04-18T03:19:52.624Z,1024.45
2018-04-18T03:20:52.547Z,1024.50
2018-04-18T03:21:52.519Z,1024.50
2018-04-18T03:22:52.494Z,1024.48
2018-04-18T03:23:52.464Z,1024.49
2018-04-18T03:24:52.437Z,1024.52
2018-04-18T03:25:52.409Z,1024.46
2018-04-18T03:26:52.379Z,1024.47
2018-04-18T03:27:52.360Z,1024.47
2018-04-18T03:28:52.324Z,1024.47
2018-04-18T03:29:52.300Z,1024.46
2018-04-18T03:30:52.293Z,1024.48
2018-04-18T03:31:52.234Z,1024.50
2018-04-18T03:32:52.239Z,1024.47
2018-04-18T03:33:52.184Z,1024.49
2018-04-18T03:34:52.152Z,1024.53
2018-04-18T03:35:52.132Z,1024.49
2018-04-18T03:36:52.105Z,1024.55
2018-04-18T03:37:52.069Z,1024.52
2018-04-18T03:38:52.049Z,1024.52
2018-04-18T03:39:52.024Z,1024.49
2018-04-18T03:40:52.016Z,1024.53
2018-04-18T03:41:51.965Z,1024.54
2018-04-18T03:42:51.943Z,1024.56
2018-04-18T03:43:51.914Z,1024.51
2018-04-18T03:44:51.885Z,1024.56
2018-04-18T03:45:51.858Z,1024.54
2018-04-18T03:46:51.825Z,1024.57
2018-04-18T03:47:51.811Z,1024.56
2018-04-18T03:48:51.769Z,1024.59
2018-04-18T03:49:51.754Z,1024.58
2018-04-18T03:50:51.712Z,1024.57
2018-04-18T03:51:51.682Z,1024.59
2018-04-18T03:52:51.656Z,1024.58
2018-04-18T03:53:51.626Z,1024.59
2018-04-18T03:54:51.600Z,1024.59
2018-04-18T03:55:51.573Z,1024.63
2018-04-18T03:56:51.557Z,1024.65
2018-04-18T03:57:51.524Z,1024.69
2018-04-18T03:58:51.493Z,1024.69
2018-04-18T03:59:51.466Z,1024.72
2018-04-18T04:00:51.433Z,1024.66
2018-04-18T04:01:54.196Z,1024.70
2018-04-18T04:02:51.383Z,1024.65
2018-04-18T04:03:51.359Z,1024.61
2018-04-18T04:04:51.324Z,1024.68
2018-04-18T04:05:51.398Z,1024.67
2018-04-18T04:06:51.271Z,1024.67
2018-04-18T04:07:51.241Z,1024.68
2018-04-18T04:08:51.224Z,1024.62
2018-04-18T04:09:51.183Z,1024.63
2018-04-18T04:10:51.162Z,1024.63
2018-04-18T04:11:51.151Z,1024.67
2018-04-18T04:12:51.100Z,1024.66
2018-04-18T04:13:51.073Z,1024.69
2018-04-18T04:14:51.064Z,1024.69
2018-04-18T04:15:51.020Z,1024.71
2018-04-18T04:16:50.998Z,1024.71
2018-04-18T04:17:50.981Z,1024.68
2018-04-18T04:18:50.937Z,1024.71
2018-04-18T04:19:50.908Z,1024.72
2018-04-18T04:20:50.896Z,1024.75
2018-04-18T04:21:50.856Z,1024.72
2018-04-18T04:22:50.822Z,1024.76
2018-04-18T04:23:50.804Z,1024.72
2018-04-18T04:24:50.799Z,1024.73
2018-04-18T04:25:50.739Z,1024.74
2018-04-18T04:26:50.733Z,1024.75
2018-04-18T04:27:50.687Z,1024.78
2018-04-18T04:28:50.664Z,1024.81
2018-04-18T04:29:50.636Z,1024.82
2018-04-18T04:30:50.634Z,1024.84
2018-04-18T04:31:50.582Z,1024.85
2018-04-18T04:32:50.576Z,1024.83
2018-04-18T04:33:50.516Z,1024.86
2018-04-18T04:34:50.505Z,1024.85
2018-04-18T04:35:50.461Z,1024.88
2018-04-18T04:36:50.434Z,1024.89
2018-04-18T04:37:50.418Z,1024.90
2018-04-18T04:38:50.380Z,1024.94
2018-04-18T04:39:50.363Z,1024.96
2018-04-18T04:40:50.329Z,1024.93
2018-04-18T04:41:50.292Z,1024.94
2018-04-18T04:42:50.284Z,1024.95
2018-04-18T04:43:50.238Z,1024.94
2018-04-18T04:44:50.223Z,1024.94
2018-04-18T04:45:50.179Z,1024.92
2018-04-18T04:46:50.174Z,1024.95
2018-04-18T04:47:50.123Z,1024.97
2018-04-18T04:48:50.100Z,1024.97
2018-04-18T04:49:50.067Z,1024.98
2018-04-18T04:50:50.040Z,1024.97
2018-04-18T04:51:50.018Z,1024.97
2018-04-18T04:52:49.990Z,1024.99
2018-04-18T04:53:49.974Z,1025.03
2018-04-18T04:54:49.929Z,1025.01
2018-04-18T04:55:49.919Z,1025.07
2018-04-18T04:56:49.876Z,1025.04
2018-04-18T04:57:49.885Z,1025.02
2018-04-18T04:58:49.825Z,1025.02
2018-04-18T04:59:49.787Z,1025.07
2018-04-18T05:00:49.767Z,1025.10
2018-04-18T05:01:49.735Z,1025.11
2018-04-18T05:02:49.708Z,1025.10
2018-04-18T05:03:49.675Z,1025.15
2018-04-18T05:04:49.653Z,1025.13
2018-04-18T05:05:49.618Z,1025.17
2018-04-18T05:06:49.597Z,1025.17
2018-04-18T05:07:49.571Z,1025.20
2018-04-18T05:08:49.540Z,1025.21
2018-04-18T05:09:49.516Z,1025.23
2018-04-18T05:10:49.484Z,1025.27
2018-04-18T05:11:49.458Z,1025.26
2018-04-18T05:12:49.428Z,1025.26
2018-04-18T05:13:49.407Z,1025.30
2018-04-18T05:14:49.371Z,1025.28
2018-04-18T05:15:49.347Z,1025.30
2018-04-18T05:16:49.321Z,1025.32
2018-04-18T05:17:49.436Z,1025.27
2018-04-18T05:18:49.327Z,1025.30
2018-04-18T05:19:49.234Z,1025.33
2018-04-18T05:20:49.213Z,1025.31
2018-04-18T05:21:49.189Z,1025.27
2018-04-18T05:22:49.144Z,1025.30
2018-04-18T05:23:49.123Z,1025.32
2018-04-18T05:24:49.098Z,1025.30
2018-04-18T05:25:49.064Z,1025.33
2018-04-18T05:26:49.038Z,1025.33
2018-04-18T05:27:49.038Z,1025.33
2018-04-18T05:28:48.988Z,1025.31
2018-04-18T05:29:48.954Z,1025.34
2018-04-18T05:30:48.989Z,1025.35
2018-04-18T05:31:48.905Z,1025.38
2018-04-18T05:32:48.870Z,1025.37
2018-04-18T05:33:48.846Z,1025.43
2018-04-18T05:34:48.812Z,1025.42
2018-04-18T05:35:48.786Z,1025.44
2018-04-18T05:36:48.788Z,1025.42
2018-04-18T05:37:48.727Z,1025.44
2018-04-18T05:38:48.705Z,1025.52
2018-04-18T05:39:48.687Z,1025.47
2018-04-18T05:40:48.655Z,1025.47
2018-04-18T05:41:48.629Z,1025.52
2018-04-18T05:42:48.601Z,1025.53
2018-04-18T05:43:48.573Z,1025.54
2018-04-18T05:44:48.539Z,1025.55
2018-04-18T05:45:48.571Z,1025.53
2018-04-18T05:46:48.485Z,1025.56
2018-04-18T05:47:48.462Z,1025.62
2018-04-18T05:48:48.428Z,1025.57
2018-04-18T05:49:48.400Z,1025.63
2018-04-18T05:50:48.376Z,1025.55
2018-04-18T05:51:48.352Z,1025.62
2018-04-18T05:52:48.318Z,1025.62
2018-04-18T05:53:48.290Z,1025.61
2018-04-18T05:54:48.267Z,1025.61
2018-04-18T05:55:48.241Z,1025.62
2018-04-18T05:56:48.211Z,1025.61
2018-04-18T05:57:48.183Z,1025.63
2018-04-18T05:58:48.164Z,1025.60
2018-04-18T05:59:48.137Z,1025.63
2018-04-18T06:00:48.146Z,1025.61
2018-04-18T06:01:48.082Z,1025.64
2018-04-18T06:02:48.054Z,1025.65
2018-04-18T06:03:48.030Z,1025.64
2018-04-18T06:04:47.994Z,1025.66
2018-04-18T06:05:47.968Z,1025.62
2018-04-18T06:06:47.937Z,1025.66
2018-04-18T06:07:47.911Z,1025.69
2018-04-18T06:08:47.890Z,1025.64
2018-04-18T06:09:47.859Z,1025.66
2018-04-18T06:10:47.830Z,1025.68
2018-04-18T06:11:47.800Z,1025.68
2018-04-18T06:12:47.775Z,1025.73
2018-04-18T06:13:47.751Z,1025.70
2018-04-18T06:14:47.716Z,1025.73
2018-04-18T06:15:47.692Z,1025.72
2018-04-18T06:16:47.661Z,1025.74
2018-04-18T06:17:47.643Z,1025.76
2018-04-18T06:18:47.616Z,1025.72
2018-04-18T06:19:47.612Z,1025.78
2018-04-18T06:20:47.561Z,1025.77
2018-04-18T06:21:47.532Z,1025.81
2018-04-18T06:22:47.516Z,1025.85
2018-04-18T06:23:47.498Z,1025.86
2018-04-18T06:24:47.493Z,1025.85
2018-04-18T06:25:47.433Z,1025.90
2018-04-18T06:26:47.400Z,1025.91
2018-04-18T06:27:47.369Z,1025.85
2018-04-18T06:28:47.364Z,1025.90
2018-04-18T06:29:47.323Z,1025.93
2018-04-18T06:30:47.296Z,1025.93
2018-04-18T06:31:47.275Z,1025.96
2018-04-18T06:32:47.244Z,1025.93
2018-04-18T06:33:47.213Z,1025.93
2018-04-18T06:34:47.184Z,1025.90
2018-04-18T06:35:47.170Z,1025.92
2018-04-18T06:36:47.133Z,1025.88
2018-04-18T06:37:47.134Z,1025.91
2018-04-18T06:38:47.084Z,1025.92
2018-04-18T06:39:47.056Z,1025.87
2018-04-18T06:40:47.033Z,1025.90
2018-04-18T06:41:47.001Z,1025.92
2018-04-18T06:42:46.975Z,1025.91
2018-04-18T06:43:46.944Z,1025.92
2018-04-18T06:44:46.916Z,1025.96
2018-04-18T06:45:46.961Z,1025.96
2018-04-18T06:46:46.873Z,1025.97
2018-04-18T06:47:46.843Z,1025.99
2018-04-18T06:48:46.861Z,1026.01
2018-04-18T06:49:46.792Z,1026.01
2018-04-18T06:50:46.763Z,1026.00
2018-04-18T06:51:46.750Z,1026.01
2018-04-18T06:52:46.714Z,1026.04
2018-04-18T06:53:46.687Z,1026.08
2018-04-18T06:54:46.680Z,1026.08
2018-04-18T06:55:46.634Z,1026.08
2018-04-18T06:56:48.255Z,1026.10
2018-04-18T06:57:46.582Z,1026.10
2018-04-18T06:58:46.602Z,1026.12
2018-04-18T06:59:46.531Z,1026.07
2018-04-18T07:00:46.509Z,1026.06
2018-04-18T07:01:46.842Z,1026.06
2018-04-18T07:02:46.467Z,1026.08
2018-04-18T07:03:46.438Z,1026.12
2018-04-18T07:04:46.404Z,1026.09
2018-04-18T07:05:46.370Z,1026.11
2018-04-18T07:06:46.363Z,1026.10
2018-04-18T07:07:46.341Z,1026.12
2018-04-18T07:08:46.301Z,1026.15
2018-04-18T07:09:46.277Z,1026.11
2018-04-18T07:10:46.250Z,1026.14
2018-04-18T07:11:46.279Z,1026.16
2018-04-18T07:12:46.197Z,1026.15
2018-04-18T07:13:46.174Z,1026.19
2018-04-18T07:14:46.164Z,1026.21
2018-04-18T07:15:47.737Z,1026.26
2018-04-18T07:16:46.105Z,1026.25
2018-04-18T07:17:46.079Z,1026.26
2018-04-18T07:18:46.050Z,1026.27
2018-04-18T07:19:46.021Z,1026.28
2018-04-18T07:20:46.021Z,1026.27
2018-04-18T07:21:45.975Z,1026.31
2018-04-18T07:22:45.945Z,1026.33
2018-04-18T07:23:45.922Z,1026.35
2018-04-18T07:24:45.886Z,1026.31
2018-04-18T07:25:48.793Z,1026.28
2018-04-18T07:26:45.839Z,1026.29
2018-04-18T07:27:45.836Z,1026.28
2018-04-18T07:28:45.788Z,1026.26
2018-04-18T07:29:46.232Z,1026.25
2018-04-18T07:30:45.748Z,1026.28
2018-04-18T07:31:45.711Z,1026.27
2018-04-18T07:32:47.231Z,1026.26
2018-04-18T07:33:45.661Z,1026.25
2018-04-18T07:34:45.652Z,1026.26
2018-04-18T07:35:45.617Z,1026.26
2018-04-18T07:36:45.594Z,1026.26
2018-04-18T07:37:45.559Z,1026.24
2018-04-18T07:38:45.537Z,1026.27
2018-04-18T07:39:45.512Z,1026.29
2018-04-18T07:40:45.490Z,1026.28
2018-04-18T07:41:45.465Z,1026.25
2018-04-18T07:42:45.437Z,1026.27
2018-04-18T07:43:45.404Z,1026.30
2018-04-18T07:44:45.392Z,1026.30
2018-04-18T07:45:45.356Z,1026.29
2018-04-18T07:46:45.338Z,1026.27
2018-04-18T07:47:45.313Z,1026.34
2018-04-18T07:48:45.353Z,1026.34
2018-04-18T07:49:45.287Z,1026.33
2018-04-18T07:50:45.300Z,1026.32
2018-04-18T07:51:45.239Z,1026.35
2018-04-18T07:52:45.190Z,1026.33
2018-04-18T07:53:45.162Z,1026.31
2018-04-18T07:54:45.153Z,1026.32
2018-04-18T07:55:45.116Z,1026.34
2018-04-18T07:56:45.132Z,1026.37
2018-04-18T07:57:45.085Z,1026.34
2018-04-18T07:58:45.038Z,1026.32
2018-04-18T07:59:45.022Z,1026.31
2018-04-18T08:00:44.991Z,1026.30
2018-04-18T08:01:44.960Z,1026.33
2018-04-18T08:02:44.936Z,1026.31
2018-04-18T08:03:44.916Z,1026.30
2018-04-18T08:04:44.900Z,1026.32
2018-04-18T08:05:44.868Z,1026.37
2018-04-18T08:06:44.863Z,1026.34
2018-04-18T08:07:46.547Z,1026.33
2018-04-18T08:08:44.800Z,1026.42
2018-04-18T08:09:44.779Z,1026.43
2018-04-18T08:10:44.747Z,1026.46
2018-04-18T08:11:44.736Z,1026.45
2018-04-18T08:12:44.700Z,1026.41
2018-04-18T08:13:44.673Z,1026.46
2018-04-18T08:14:44.646Z,1026.46
2018-04-18T08:15:44.630Z,1026.44
2018-04-18T08:16:44.645Z,1026.45
2018-04-18T08:17:44.577Z,1026.43
2018-04-18T08:18:44.551Z,1026.41
2018-04-18T08:19:44.524Z,1026.45
2018-04-18T08:20:46.906Z,1026.47
2018-04-18T08:21:46.278Z,1026.52
2018-04-18T08:22:44.453Z,1026.48
2018-04-18T08:23:44.436Z,1026.52
2018-04-18T08:24:44.408Z,1026.52
2018-04-18T08:25:44.414Z,1026.53
2018-04-18T08:26:44.365Z,1026.50
2018-04-18T08:27:44.362Z,1026.52
2018-04-18T08:28:44.320Z,1026.52
2018-04-18T08:29:44.289Z,1026.56
2018-04-18T08:30:44.353Z,1026.48
2018-04-18T08:31:44.255Z,1026.50
2018-04-18T08:32:44.223Z,1026.52
2018-04-18T08:33:44.195Z,1026.49
2018-04-18T08:34:44.257Z,1026.49
2018-04-18T08:35:44.144Z,1026.45
2018-04-18T08:36:44.127Z,1026.46
2018-04-18T08:37:44.095Z,1026.47
2018-04-18T08:38:44.103Z,1026.44
2018-04-18T08:39:44.053Z,1026.46
2018-04-18T08:40:44.030Z,1026.46
2018-04-18T08:41:44.007Z,1026.49
2018-04-18T08:42:43.982Z,1026.49
2018-04-18T08:43:43.973Z,1026.50
2018-04-18T08:44:43.938Z,1026.52
2018-04-18T08:45:44.010Z,1026.51
2018-04-18T08:46:43.898Z,1026.52
2018-04-18T08:47:43.876Z,1026.49
2018-04-18T08:48:43.910Z,1026.49
2018-04-18T08:49:43.826Z,1026.47
2018-04-18T08:50:43.805Z,1026.47
2018-04-18T08:51:46.806Z,1026.46
2018-04-18T08:52:46.680Z,1026.45
2018-04-18T08:53:43.866Z,1026.46
2018-04-18T08:54:43.705Z,1026.46
2018-04-18T08:55:43.695Z,1026.44
2018-04-18T08:56:43.710Z,1026.44
2018-04-18T08:59:26.306Z,1026.34
2018-04-18T09:00:25.380Z,1026.39
2018-04-18T09:02:28.851Z,1026.35
2018-04-18T09:03:28.921Z,1026.36
2018-04-18T09:05:25.827Z,1026.36
2018-04-18T09:06:24.612Z,1026.36
2018-04-18T09:08:27.737Z,1026.36
2018-04-18T09:09:28.592Z,1026.37
2018-04-18T09:11:36.808Z,1026.39
2018-04-18T09:12:30.291Z,1026.37
2018-04-18T09:14:33.265Z,1026.42
2018-04-18T09:15:33.425Z,1026.41
2018-04-18T09:20:02.327Z,1026.41
2018-04-18T09:23:02.777Z,1026.40
2018-04-18T09:24:04.345Z,1026.38
2018-04-18T09:26:11.943Z,1026.39
2018-04-18T09:27:11.570Z,1026.36
2018-04-18T09:28:11.656Z,1026.32
2018-04-18T09:29:12.013Z,1026.31
2018-04-18T09:30:11.449Z,1026.30
2018-04-18T09:31:11.470Z,1026.33
2018-04-18T09:32:11.352Z,1026.38
2018-04-18T09:33:11.351Z,1026.37
2018-04-18T09:34:11.315Z,1026.35
2018-04-18T09:35:11.344Z,1026.32
2018-04-18T09:36:11.220Z,1026.29
2018-04-18T09:37:11.460Z,1026.30
2018-04-18T09:38:11.172Z,1026.33
2018-04-18T09:39:11.171Z,1026.36
2018-04-18T09:40:11.146Z,1026.34
2018-04-18T09:41:11.236Z,1026.38
2018-04-18T09:42:11.096Z,1026.32
2018-04-18T09:43:11.172Z,1026.37
2018-04-18T09:44:11.047Z,1026.32
2018-04-18T09:45:11.131Z,1026.38
2018-04-18T09:46:11.005Z,1026.40
2018-04-18T09:47:11.114Z,1026.38
2018-04-18T09:48:10.961Z,1026.36
2018-04-18T09:49:11.057Z,1026.37
2018-04-18T09:50:10.911Z,1026.36
2018-04-18T09:51:10.973Z,1026.38
2018-04-18T09:52:10.952Z,1026.37
2018-04-18T09:53:10.938Z,1026.44
2018-04-18T09:54:10.840Z,1026.42
2018-04-18T09:55:10.936Z,1026.35
2018-04-18T09:56:10.789Z,1026.35
2018-04-18T09:57:12.410Z,1026.36
2018-04-18T09:58:11.005Z,1026.34
2018-04-18T09:59:10.800Z,1026.37
2018-04-18T10:00:10.753Z,1026.39
2018-04-18T10:01:10.744Z,1026.39
2018-04-18T10:02:10.666Z,1026.36
2018-04-18T10:03:10.644Z,1026.37
2018-04-18T10:04:10.637Z,1026.36
2018-04-18T10:05:10.656Z,1026.34
2018-04-18T10:06:10.577Z,1026.31
2018-04-18T10:07:10.616Z,1026.32
2018-04-18T10:08:10.544Z,1026.30
2018-04-18T10:09:10.617Z,1026.32
2018-04-18T10:10:10.503Z,1026.34
2018-04-18T10:11:10.591Z,1026.35
2018-04-18T10:12:10.496Z,1026.34
2018-04-18T10:13:10.436Z,1026.34
2018-04-18T10:14:12.321Z,1026.40
2018-04-18T10:15:10.396Z,1026.36
2018-04-18T10:16:11.310Z,1026.34
2018-04-18T10:17:10.373Z,1026.35
2018-04-18T10:18:10.330Z,1026.34
2018-04-18T10:19:10.316Z,1026.36
2018-04-18T10:20:10.291Z,1026.35
2018-04-18T10:21:10.275Z,1026.32
2018-04-18T10:22:10.299Z,1026.39
2018-04-18T10:23:10.231Z,1026.36
2018-04-18T10:24:10.257Z,1026.32
2018-04-18T10:25:10.896Z,1026.34
2018-04-18T10:26:10.170Z,1026.34
2018-04-18T10:27:10.208Z,1026.31
2018-04-18T10:28:10.135Z,1026.34
2018-04-18T10:29:10.186Z,1026.34
2018-04-18T10:30:10.101Z,1026.29
2018-04-18T10:31:10.113Z,1026.28
2018-04-18T10:32:10.048Z,1026.28
2018-04-18T10:33:10.111Z,1026.29
2018-04-18T10:34:10.048Z,1026.28
2018-04-18T10:35:10.123Z,1026.26
2018-04-18T10:36:09.994Z,1026.23
2018-04-18T10:37:10.082Z,1026.24
2018-04-18T10:38:09.995Z,1026.20
2018-04-18T10:39:10.035Z,1026.25
2018-04-18T10:40:09.898Z,1026.30
2018-04-18T10:41:10.626Z,1026.27
2018-04-18T10:42:09.857Z,1026.21
2018-04-18T10:43:09.943Z,1026.20
2018-04-18T10:44:09.817Z,1026.21
2018-04-18T10:45:10.016Z,1026.14
2018-04-18T10:46:09.825Z,1026.14
2018-04-18T10:47:09.850Z,1026.18
2018-04-18T10:48:09.748Z,1026.20
2018-04-18T10:49:09.888Z,1026.20
2018-04-18T10:50:09.700Z,1026.19
2018-04-18T10:51:09.747Z,1026.21
2018-04-18T10:52:09.710Z,1026.19
2018-04-18T10:53:09.722Z,1026.16
2018-04-18T10:54:09.622Z,1026.16
2018-04-18T10:55:09.661Z,1026.15
2018-04-18T10:56:09.585Z,1026.14
2018-04-18T10:57:09.710Z,1026.14
2018-04-18T10:58:09.551Z,1026.09
2018-04-18T10:59:09.639Z,1026.07
2018-04-18T11:00:09.511Z,1026.10
2018-04-18T11:01:09.598Z,1026.07
2018-04-18T11:02:09.494Z,1026.09
2018-04-18T11:03:09.451Z,1026.10
2018-04-18T11:04:09.428Z,1026.09
2018-04-18T11:05:09.416Z,1026.03
2018-04-18T11:06:09.384Z,1026.08
2018-04-18T11:07:09.388Z,1026.09
2018-04-18T11:08:09.400Z,1026.06
2018-04-18T11:09:09.332Z,1026.07
2018-04-18T11:10:09.367Z,1026.07
2018-04-18T11:11:09.294Z,1026.06
2018-04-18T11:12:09.287Z,1026.10
2018-04-18T11:13:09.411Z,1026.05
2018-04-18T11:14:09.234Z,1026.06
2018-04-18T11:15:09.331Z,1026.05
2018-04-18T11:16:24.329Z,1026.04
2018-04-18T11:18:12.706Z,1026.05
2018-04-18T11:19:12.710Z,1026.05
2018-04-18T11:21:18.698Z,1026.04
2018-04-18T11:22:18.643Z,1026.06
2018-04-18T11:24:21.519Z,1026.02
2018-04-18T11:25:21.788Z,1025.97
2018-04-18T11:27:22.081Z,1026.00
2018-04-18T11:28:21.717Z,1025.98
2018-04-18T11:30:24.594Z,1025.94
2018-04-18T11:31:25.157Z,1025.92
2018-04-18T11:32:24.725Z,1025.97
2018-04-18T11:33:24.569Z,1025.87
2018-04-18T11:34:24.432Z,1025.92
2018-04-18T11:35:24.470Z,1025.88
2018-04-18T11:36:24.399Z,1025.84
2018-04-18T11:37:24.423Z,1025.82
2018-04-18T11:38:24.426Z,1025.86
2018-04-18T11:39:24.499Z,1025.85
2018-04-18T11:40:24.325Z,1025.84
2018-04-18T11:41:24.326Z,1025.82
2018-04-18T11:42:24.297Z,1025.82
2018-04-18T11:43:24.322Z,1025.85
2018-04-18T11:44:24.267Z,1025.83
2018-04-18T11:45:24.407Z,1025.84
2018-04-18T11:46:24.275Z,1025.79
2018-04-18T11:47:24.266Z,1025.85
2018-04-18T11:48:24.198Z,1025.82
2018-04-18T11:49:24.206Z,1025.85
2018-04-18T11:50:24.179Z,1025.84
2018-04-18T11:51:24.179Z,1025.84
2018-04-18T11:52:24.139Z,1025.82
2018-04-18T11:53:24.128Z,1025.82
2018-04-18T11:54:24.105Z,1025.86
2018-04-18T11:55:24.165Z,1025.81
2018-04-18T11:56:24.112Z,1025.77
2018-04-18T11:57:24.060Z,1025.79
2018-04-18T11:58:24.049Z,1025.77
2018-04-18T11:59:24.042Z,1025.78
2018-04-18T12:00:24.022Z,1025.80
2018-04-18T12:01:24.000Z,1025.76
2018-04-18T12:02:23.992Z,1025.80
2018-04-18T12:03:23.984Z,1025.81
2018-04-18T12:04:23.966Z,1025.78
2018-04-18T12:05:23.960Z,1025.76
2018-04-18T12:06:23.962Z,1025.73
2018-04-18T12:07:24.035Z,1025.71
2018-04-18T12:08:23.903Z,1025.71
2018-04-18T12:09:24.019Z,1025.69
2018-04-18T12:10:23.904Z,1025.72
2018-04-18T12:11:23.937Z,1025.77
2018-04-18T12:12:23.875Z,1025.74
2018-04-18T12:13:23.991Z,1025.76
2018-04-18T12:14:23.821Z,1025.74
2018-04-18T12:15:23.903Z,1025.74
2018-04-18T12:16:23.792Z,1025.73
2018-04-18T12:17:23.823Z,1025.73
2018-04-18T12:18:23.760Z,1025.73
2018-04-18T12:19:23.820Z,1025.75
2018-04-18T12:20:23.757Z,1025.72
2018-04-18T12:21:23.926Z,1025.77
2018-04-18T12:22:23.728Z,1025.79
2018-04-18T12:23:23.856Z,1025.76
2018-04-18T12:24:23.691Z,1025.77